createdAt,value
2024-01-17T00:00:25.407Z,-2.1
2024-01-17T00:10:25.611Z,-2.2
2024-01-17T00:20:25.837Z,-2.3
2024-01-17T00:30:26.082Z,-2.3
2024-01-17T00:40:26.248Z,-2.3
2024-01-17T00:50:26.510Z,-2.4
2024-01-17T01:00:26.681Z,-2.5
2024-01-17T01:10:26.930Z,-2.5
2024-01-17T01:20:27.124Z,-2.6
2024-01-17T01:30:27.330Z,-2.8
2024-01-17T01:40:27.555Z,-2.9
2024-01-17T01:50:27.751Z,-2.9
2024-01-17T02:00:27.997Z,-2.9
2024-01-17T02:10:28.170Z,-3
2024-01-17T02:20:28.425Z,-3.1
2024-01-17T02:30:28.711Z,-3.2
2024-01-17T02:40:28.838Z,-3.3
2024-01-17T02:50:29.077Z,-3.3
2024-01-17T03:00:29.292Z,-3.3
2024-01-17T03:10:29.461Z,-3.4
2024-01-17T03:20:29.708Z,-3.4
2024-01-17T03:30:29.944Z,-3.5
2024-01-17T03:50:30.373Z,-3.6
2024-01-17T04:00:30.559Z,-3.6
2024-01-17T04:10:30.759Z,-3.6
2024-01-17T04:20:31.015Z,-3.6
2024-01-17T04:30:31.215Z,-3.6
2024-01-17T04:40:31.401Z,-3.7
2024-01-17T04:50:31.711Z,-3.7
2024-01-17T05:00:31.853Z,-3.8
2024-01-17T05:10:32.022Z,-3.8
2024-01-17T05:20:32.242Z,-3.7
2024-01-17T05:30:32.568Z,-3.8
2024-01-17T05:40:32.696Z,-3.7
2024-01-17T05:50:32.963Z,-3.6
2024-01-17T06:00:33.195Z,-3.6
2024-01-17T06:10:33.336Z,-3.6
2024-01-17T06:20:33.595Z,-3.7
2024-01-17T06:30:33.838Z,-3.6
2024-01-17T06:40:33.995Z,-3.7
2024-01-17T06:50:34.208Z,-3.6
2024-01-17T07:00:34.784Z,-3.5
2024-01-17T07:10:34.620Z,-3.4
2024-01-17T07:20:34.843Z,-3.3
2024-01-17T07:30:35.072Z,-3.3
2024-01-17T07:40:35.264Z,-3.2
2024-01-17T07:50:35.515Z,-3.2
2024-01-17T08:00:35.684Z,-3
2024-01-17T08:10:35.946Z,-2.9
2024-01-17T08:20:36.150Z,-2.8
2024-01-17T08:30:36.340Z,-2.7
2024-01-17T08:40:36.769Z,-2.5
2024-01-17T08:50:36.770Z,-2.4
2024-01-17T09:00:36.974Z,-2.3
2024-01-17T09:10:37.190Z,-2
2024-01-17T09:20:37.431Z,-1.8
2024-01-17T09:30:37.615Z,-1.8
2024-01-17T09:40:37.820Z,-1.7
2024-01-17T09:50:38.108Z,-1.5
2024-01-17T10:00:38.246Z,-1.4
2024-01-17T10:10:38.462Z,-1.4
2024-01-17T10:20:38.731Z,-1.3
2024-01-17T10:30:39.134Z,-1.3
2024-01-17T10:40:39.101Z,-1.2
2024-01-17T10:50:39.339Z,-1.2
2024-01-17T11:00:39.534Z,-1.2
2024-01-17T11:10:39.708Z,-1.1
2024-01-17T11:30:40.140Z,-0.9
2024-01-17T11:40:40.375Z,-0.8
2024-01-17T11:50:40.615Z,-0.7
2024-01-17T12:00:40.805Z,-0.6
2024-01-17T12:10:40.991Z,-0.6
2024-01-17T12:20:41.195Z,-0.6
2024-01-17T12:30:41.444Z,-0.6
2024-01-17T12:40:41.620Z,-0.5
2024-01-17T12:50:41.855Z,-0.4
2024-01-17T13:00:42.117Z,-0.4
2024-01-17T13:10:42.249Z,-0.3
2024-01-17T13:20:42.520Z,-0.3
2024-01-17T13:30:42.668Z,-0.3
2024-01-17T13:50:43.100Z,-0.2
2024-01-17T14:30:43.933Z,-0.3
2024-01-17T14:50:44.347Z,-0.2
2024-01-17T15:00:44.632Z,-0.3
2024-01-17T15:50:45.690Z,-0.4
2024-01-17T16:30:46.529Z,-0.6
2024-01-17T16:50:46.934Z,-0.6
2024-01-17T17:10:47.323Z,-0.7
2024-01-17T17:30:47.746Z,-0.8
2024-01-17T17:40:47.924Z,-0.8
2024-01-17T17:50:48.162Z,-0.8
2024-01-17T18:10:48.598Z,-0.9
2024-01-17T18:30:48.987Z,-0.8
2024-01-17T18:40:49.210Z,-0.8
2024-01-17T18:50:49.487Z,-0.9
2024-01-17T19:10:49.842Z,-0.9
2024-01-17T19:30:50.272Z,-1
2024-01-17T19:50:50.733Z,-1
2024-01-17T20:10:51.094Z,-1
2024-01-17T20:20:51.362Z,-1
2024-01-17T20:30:51.526Z,-1
2024-01-17T20:40:51.757Z,-1.1
2024-01-17T20:50:51.996Z,-1.1
2024-01-17T21:00:52.220Z,-1.1
2024-01-17T21:10:52.371Z,-1.2
2024-01-17T21:20:52.615Z,-1.1
2024-01-17T21:30:52.846Z,-1.3
2024-01-17T21:40:53.067Z,-1.3
2024-01-17T21:50:53.291Z,-1.3
2024-01-17T22:10:53.645Z,-1.3
2024-01-17T22:30:54.117Z,-1.2
2024-01-17T22:50:54.609Z,-1.2
2024-01-17T23:10:55.057Z,-1.2
2024-01-17T23:30:55.452Z,-1.2
2024-01-17T23:50:55.858Z,-1.3
